Charter Quote
Worldwide +1-877-727-2538 Call
Select Language Lang
SAFETY RELIABILITY EXPERIENCE

Private Jet Charter Services - Yulin Airport (ZLYL)

Paramount Business Jets offers private jet charter flights and luxury airliner charters to and from Yulin Airport.

AIRPORT INFORMATION
ICAOZLYL
IATAUYN
LOCATIONYulin, China
FACILITY TYPEAIRPORT

At Paramount Business Jets you can hire chartered private jets to and from Yulin Airport with as little as 4 hours of notice. All flights booked via Paramount Business Jets are operated by certified direct air carriers that meet and exceed the FAA part 135 and 121 protocol or a foreign equivalent safety authority. Furthermore, Paramount Business Jets subscribes to ARGUS for their third party safety checks of operators, aircraft, and crews prior each and every flight to and from Yulin Airport and worldwide.

  • Quote a trip using Yulin Airport or call us 24/7 - 365 days a year at +1-877-727-2538.
Questions? Call +1-877-727-2538

METAR Weather Data at Yulin Airport, ZLYL, UYN

STATIONZLYL
OBSERVEDTue Sep 20, 16:00 UTC
NOWThu Nov 14, 17:02 UTC
AGE27601:02 hr ago
WINDWNW at 7 mph
VISIBILITY10 miles
CONDITIONSlight thunderstorm rain
CLOUDSscattered clouds
TEMP57°F (14°C)
DEWPT52°F (11°C)
HUMIDITY82%
BAROMETER1022 hPa (30.18 in Hg)
METARZLYL 201600Z 29003MPS 6000 -TSRA SCT020 SCT030CB 14/11 Q1022 RESHRA NOSIG

Call us on +1-877-727-2538 (24 Hours), Check our Pricing, or Get a Quick Quote.

Find Airports Near any Location

Processing
...